Time;durP1;ratioP1;P1;durP2;ratioP2;P2;SDS_P1;SDS_P2;PMS_P1;PMS_P2;Temp;Humidity;BMP_temperature;BMP_pressure;BME280_temperature;BME280_humidity;BME280_pressure;Samples;Min_cycle;Max_cycle;Signal;HPM_P1;HPM_P2
2021/05/22 00:00:49;;;;;;;17.20;10.15;;;13.00;75.00;;;;;;4975845;28;20057;-73
2021/05/22 00:03:14;;;;;;;20.30;11.52;;;13.00;75.10;;;;;;4975816;28;20037;-72
2021/05/22 00:05:40;;;;;;;19.27;12.00;;;12.90;75.10;;;;;;4975844;28;20026;-72
2021/05/22 00:08:06;;;;;;;24.02;12.57;;;12.90;75.10;;;;;;4975715;28;20038;-71
2021/05/22 00:10:32;;;;;;;23.55;12.23;;;12.80;75.20;;;;;;4975811;28;20031;-70
2021/05/22 00:12:58;;;;;;;22.90;11.32;;;12.70;75.40;;;;;;4975999;28;20031;-72
2021/05/22 00:15:24;;;;;;;19.73;11.40;;;12.70;75.70;;;;;;4974477;28;20119;-71
2021/05/22 00:17:49;;;;;;;19.27;11.10;;;12.70;76.00;;;;;;4975400;28;20031;-72
2021/05/22 00:20:16;;;;;;;19.20;11.98;;;12.60;76.20;;;;;;4975463;28;20039;-71
2021/05/22 00:22:43;;;;;;;22.40;11.77;;;12.60;76.50;;;;;;4975339;28;20054;-71
2021/05/22 00:25:10;;;;;;;19.83;11.07;;;12.60;76.80;;;;;;4974998;28;20027;-71
2021/05/22 00:27:36;;;;;;;18.25;10.95;;;12.60;77.00;;;;;;4975337;28;20065;-70
2021/05/22 00:30:04;;;;;;;22.70;10.32;;;12.60;77.00;;;;;;4974908;28;20122;-71
2021/05/22 00:32:30;;;;;;;23.58;11.68;;;12.60;76.90;;;;;;4975391;28;20015;-73
2021/05/22 00:34:56;;;;;;;26.58;12.02;;;12.60;76.90;;;;;;4975334;28;20023;-72
2021/05/22 00:37:21;;;;;;;30.35;11.40;;;12.50;77.00;;;;;;4975035;28;20462;-71
2021/05/22 00:39:47;;;;;;;15.23;9.40;;;12.50;77.10;;;;;;4975104;28;20110;-72
2021/05/22 00:42:13;;;;;;;14.13;9.68;;;12.50;77.20;;;;;;4975160;28;20030;-72
2021/05/22 00:45:04;;;;;;;17.08;10.23;;;12.50;77.40;;;;;;4975232;28;20033;-72
2021/05/22 00:47:30;;;;;;;23.00;9.97;;;12.50;77.50;;;;;;4975399;28;20481;-72
2021/05/22 00:49:56;;;;;;;17.40;10.90;;;12.50;77.40;;;;;;4975372;28;20082;-72
2021/05/22 00:52:23;;;;;;;12.52;10.18;;;12.40;77.40;;;;;;4975035;28;20098;-72
2021/05/22 00:54:49;;;;;;;15.32;11.20;;;12.40;77.50;;;;;;4974950;28;20027;-72
2021/05/22 00:57:17;;;;;;;12.95;10.05;;;12.40;77.70;;;;;;4975168;28;20113;-73
2021/05/22 00:59:43;;;;;;;14.77;11.32;;;12.30;77.90;;;;;;4975012;28;20030;-72
2021/05/22 01:02:11;;;;;;;15.57;11.00;;;12.30;78.10;;;;;;4974857;28;20026;-71
2021/05/22 01:04:36;;;;;;;14.98;10.77;;;12.20;78.30;;;;;;4974856;28;20027;-71
2021/05/22 01:07:03;;;;;;;14.65;10.60;;;12.20;78.60;;;;;;4974332;28;20033;-72
2021/05/22 01:09:31;;;;;;;17.60;12.38;;;12.10;78.80;;;;;;4974449;28;20022;-72
2021/05/22 01:12:00;;;;;;;15.70;10.52;;;12.10;79.00;;;;;;4974426;28;20114;-71
2021/05/22 01:14:48;;;;;;;18.52;11.13;;;12.00;79.20;;;;;;4974512;28;20601;-71
2021/05/22 01:17:16;;;;;;;14.88;11.18;;;12.00;79.50;;;;;;4974322;28;20073;-71
2021/05/22 01:20:01;;;;;;;16.73;11.07;;;12.00;79.60;;;;;;4974505;28;20034;-72
2021/05/22 01:22:28;;;;;;;19.10;11.75;;;11.90;79.80;;;;;;4975059;28;20385;-72
2021/05/22 01:25:03;;;;;;;16.83;12.27;;;11.90;79.90;;;;;;4974773;28;20430;-73
2021/05/22 01:27:31;;;;;;;18.85;12.15;;;11.90;80.10;;;;;;4974365;28;20505;-72
2021/05/22 01:29:57;;;;;;;18.20;12.13;;;11.80;80.10;;;;;;4974014;28;20057;-73
2021/05/22 01:32:23;;;;;;;15.27;11.73;;;11.80;80.30;;;;;;4973970;28;20023;-71
2021/05/22 01:34:49;;;;;;;15.93;12.05;;;11.80;80.40;;;;;;4973841;28;20106;-72
2021/05/22 01:37:14;;;;;;;16.98;11.98;;;11.80;80.70;;;;;;4973785;28;20110;-72
2021/05/22 01:39:40;;;;;;;17.95;12.60;;;11.80;80.90;;;;;;4972403;28;20054;-71
2021/05/22 01:42:06;;;;;;;17.55;12.05;;;11.90;80.90;;;;;;4973022;28;20031;-71
2021/05/22 01:44:35;;;;;;;18.17;11.90;;;11.90;80.80;;;;;;4973537;28;20026;-71
2021/05/22 01:47:03;;;;;;;23.90;12.65;;;11.80;80.80;;;;;;5004861;28;20496;-72
2021/05/22 01:49:31;;;;;;;17.55;13.05;;;11.90;80.90;;;;;;4973802;28;20027;-72
2021/05/22 01:51:57;;;;;;;19.92;12.48;;;11.90;81.10;;;;;;5004904;28;20022;-71
2021/05/22 01:54:24;;;;;;;17.73;12.23;;;11.90;81.10;;;;;;4973651;28;20378;-72
2021/05/22 01:56:51;;;;;;;17.20;12.30;;;11.90;81.00;;;;;;4973475;28;20029;-71
2021/05/22 01:59:17;;;;;;;24.77;13.27;;;11.90;80.90;;;;;;4973551;28;20027;-72
2021/05/22 02:01:50;;;;;;;17.85;12.60;;;11.90;81.00;;;;;;4973934;28;20022;-72
2021/05/22 02:04:20;;;;;;;18.17;12.77;;;11.90;81.00;;;;;;4973737;28;20014;-72
2021/05/22 02:06:49;;;;;;;16.20;11.80;;;11.90;80.90;;;;;;4973545;28;20050;-72
2021/05/22 02:09:15;;;;;;;23.67;12.38;;;11.90;80.90;;;;;;4974191;28;20019;-72
2021/05/22 02:11:44;;;;;;;19.27;12.88;;;11.90;80.90;;;;;;4973913;28;20065;-71
2021/05/22 02:14:12;;;;;;;17.90;12.93;;;12.00;80.90;;;;;;4973731;28;20034;-72
2021/05/22 02:17:06;;;;;;;18.98;11.63;;;12.00;80.70;;;;;;4973817;28;20019;-71
2021/05/22 02:19:34;;;;;;;15.02;10.80;;;12.10;81.40;;;;;;4972317;28;20113;-71
2021/05/22 02:22:03;;;;;;;14.77;10.60;;;12.50;82.50;;;;;;4973735;28;20374;-73
2021/05/22 02:24:31;;;;;;;15.50;10.65;;;13.20;82.30;;;;;;4973689;28;20043;-72
2021/05/22 02:26:58;;;;;;;16.58;11.10;;;13.90;81.00;;;;;;4973537;28;20492;-71
2021/05/22 02:29:25;;;;;;;17.35;11.15;;;14.80;79.10;;;;;;4973343;28;20063;-72
2021/05/22 02:31:52;;;;;;;18.70;10.60;;;15.60;76.70;;;;;;4973533;28;20035;-72
2021/05/22 02:34:27;;;;;;;15.85;11.73;;;16.50;74.40;;;;;;4973744;28;20070;-72
2021/05/22 02:36:55;;;;;;;20.73;12.02;;;17.30;71.80;;;;;;4973450;28;20031;-72
2021/05/22 02:39:22;;;;;;;18.33;12.10;;;18.10;69.10;;;;;;4973262;28;20114;-72
2021/05/22 02:41:50;;;;;;;19.33;12.95;;;18.80;66.70;;;;;;4973261;28;20027;-71
2021/05/22 02:44:17;;;;;;;25.27;12.13;;;19.60;64.30;;;;;;4973221;28;20015;-72
2021/05/22 02:46:47;;;;;;;20.10;12.00;;;20.40;62.30;;;;;;4973145;28;20029;-73
2021/05/22 02:49:17;;;;;;;19.40;11.88;;;21.10;60.00;;;;;;5004278;28;20030;-72
2021/05/22 02:51:44;;;;;;;17.02;12.13;;;21.90;58.50;;;;;;4973011;28;20378;-73
2021/05/22 02:54:10;;;;;;;17.25;11.50;;;22.60;56.10;;;;;;4974516;28;20078;-71
2021/05/22 02:56:36;;;;;;;17.38;10.65;;;23.30;54.20;;;;;;4977055;28;20031;-72
2021/05/22 02:59:03;;;;;;;15.18;9.43;;;23.90;52.70;;;;;;4976828;28;20028;-72
2021/05/22 03:01:31;;;;;;;21.63;9.90;;;24.60;51.00;;;;;;4976664;28;20026;-71
2021/05/22 03:03:58;;;;;;;13.20;8.80;;;25.20;49.40;;;;;;4976739;28;20049;-72
2021/05/22 03:06:24;;;;;;;11.05;7.78;;;25.70;48.40;;;;;;4976890;28;20023;-72
2021/05/22 03:08:50;;;;;;;13.23;7.47;;;26.10;47.40;;;;;;4976791;28;20029;-72
2021/05/22 03:11:18;;;;;;;18.83;9.15;;;26.60;46.60;;;;;;4976693;28;20102;-72
2021/05/22 03:13:45;;;;;;;13.10;8.35;;;27.20;46.10;;;;;;4976495;28;20064;-72
2021/05/22 03:16:11;;;;;;;9.65;6.95;;;27.70;44.60;;;;;;4976320;28;20034;-72
2021/05/22 03:18:37;;;;;;;18.80;7.88;;;28.20;43.60;;;;;;4976417;28;20085;-71
2021/05/22 03:21:03;;;;;;;14.80;7.78;;;28.60;42.80;;;;;;4976514;28;20030;-72
2021/05/22 03:23:29;;;;;;;14.05;7.55;;;29.00;42.80;;;;;;4976674;28;20042;-71
2021/05/22 03:25:54;;;;;;;14.65;7.15;;;29.40;41.40;;;;;;4976303;28;20081;-72
2021/05/22 03:28:21;;;;;;;17.00;7.72;;;29.70;40.70;;;;;;4976000;28;20047;-71
2021/05/22 03:30:47;;;;;;;11.93;7.35;;;30.10;40.10;;;;;;4976207;28;20162;-71
2021/05/22 03:33:13;;;;;;;12.05;6.65;;;30.60;39.90;;;;;;4976469;28;20027;-71
2021/05/22 03:35:39;;;;;;;16.70;8.18;;;31.20;39.10;;;;;;4974850;28;20523;-71
2021/05/22 03:38:04;;;;;;;16.75;8.20;;;31.70;38.40;;;;;;4976337;28;20370;-72
2021/05/22 03:40:30;;;;;;;18.38;7.32;;;32.10;37.90;;;;;;4976414;28;20023;-72
2021/05/22 03:42:56;;;;;;;20.38;8.18;;;32.50;37.40;;;;;;4976330;28;20030;-72
2021/05/22 03:45:22;;;;;;;13.27;7.93;;;33.00;36.90;;;;;;4975849;28;20054;-72
2021/05/22 03:47:48;;;;;;;14.52;7.95;;;33.30;36.20;;;;;;4975563;28;20023;-72
2021/05/22 03:50:14;;;;;;;20.58;8.02;;;33.50;35.80;;;;;;4975777;28;20102;-71
2021/05/22 03:52:40;;;;;;;11.13;6.82;;;33.90;35.60;;;;;;4975692;28;20034;-71
2021/05/22 03:55:08;;;;;;;9.65;6.20;;;34.00;35.10;;;;;;4975643;28;20041;-72
2021/05/22 03:57:34;;;;;;;12.20;6.70;;;34.30;34.80;;;;;;4975571;28;20027;-72
2021/05/22 03:59:59;;;;;;;21.45;8.15;;;34.40;34.50;;;;;;4975511;28;20023;-73
2021/05/22 04:02:25;;;;;;;15.40;7.60;;;34.60;34.40;;;;;;4975526;28;20378;-72
2021/05/22 04:04:51;;;;;;;9.93;6.95;;;34.70;34.30;;;;;;4975020;28;20411;-72
2021/05/22 04:07:17;;;;;;;13.80;7.38;;;34.90;34.20;;;;;;4975384;28;20037;-72
2021/05/22 04:09:42;;;;;;;14.43;7.57;;;35.20;34.10;;;;;;4975346;28;20065;-72
2021/05/22 04:12:08;;;;;;;13.88;7.00;;;35.40;34.00;;;;;;4975645;28;20030;-71
2021/05/22 04:14:34;;;;;;;9.05;6.88;;;35.80;34.40;;;;;;4975488;28;20030;-71
2021/05/22 04:16:59;;;;;;;22.67;7.90;;;36.10;33.60;;;;;;4975261;28;20023;-73
2021/05/22 04:19:25;;;;;;;15.75;7.97;;;36.50;33.50;;;;;;4975125;28;20109;-72
2021/05/22 04:21:51;;;;;;;21.20;7.20;;;36.90;33.00;;;;;;4975333;28;20035;-72
2021/05/22 04:24:17;;;;;;;17.77;7.70;;;37.20;32.60;;;;;;4975010;28;20054;-71
2021/05/22 04:26:43;;;;;;;15.10;8.20;;;37.50;32.40;;;;;;4974974;28;20027;-72
2021/05/22 04:29:10;;;;;;;9.65;6.22;;;37.70;32.30;;;;;;4974714;28;20050;-72
2021/05/22 04:31:35;;;;;;;16.38;6.97;;;38.10;31.80;;;;;;4974858;28;20101;-72
2021/05/22 04:34:01;;;;;;;24.45;7.85;;;38.30;31.50;;;;;;4974667;28;20106;-72
2021/05/22 04:36:27;;;;;;;16.38;7.10;;;38.60;31.40;;;;;;4974824;28;20027;-71
2021/05/22 04:38:53;;;;;;;16.95;6.82;;;38.90;31.20;;;;;;4974568;28;20023;-72
2021/05/22 04:41:19;;;;;;;15.30;6.43;;;39.40;30.90;;;;;;4974784;28;20027;-72
2021/05/22 04:43:45;;;;;;;21.65;6.80;;;39.80;30.60;;;;;;4974469;28;20098;-72
2021/05/22 04:46:11;;;;;;;12.88;6.18;;;40.10;30.20;;;;;;4974456;28;20109;-71
2021/05/22 04:48:37;;;;;;;12.70;6.00;;;40.50;30.20;;;;;;4974445;28;20465;-71
2021/05/22 04:51:03;;;;;;;9.05;5.63;;;40.80;30.00;;;;;;4974502;28;20027;-72
2021/05/22 04:53:28;;;;;;;13.25;6.32;;;41.10;29.90;;;;;;4974252;28;20027;-71
2021/05/22 04:55:54;;;;;;;8.68;5.65;;;41.40;29.70;;;;;;4974110;28;20051;-71
2021/05/22 04:58:20;;;;;;;10.85;5.50;;;41.70;29.50;;;;;;4974532;28;20849;-71
2021/05/22 05:00:46;;;;;;;6.63;5.18;;;41.90;29.30;;;;;;4974211;28;20031;-71
2021/05/22 05:03:11;;;;;;;10.18;5.85;;;42.20;29.20;;;;;;4974045;28;20031;-71
2021/05/22 05:05:37;;;;;;;9.63;5.03;;;42.40;29.10;;;;;;5005515;28;20113;-72
2021/05/22 05:08:03;;;;;;;6.95;5.72;;;42.50;28.90;;;;;;4973689;28;20037;-71
2021/05/22 05:10:29;;;;;;;8.07;5.90;;;42.60;28.90;;;;;;4973708;28;20058;-71
2021/05/22 05:12:55;;;;;;;9.45;5.28;;;42.80;29.00;;;;;;4973913;28;20054;-71
2021/05/22 05:15:21;;;;;;;10.38;6.32;;;42.90;28.70;;;;;;4973837;28;20556;-71
2021/05/22 05:17:47;;;;;;;11.38;7.53;;;43.10;28.70;;;;;;4973151;28;20051;-71
2021/05/22 05:20:13;;;;;;;5.80;5.20;;;43.00;28.60;;;;;;4973742;28;20038;-73
2021/05/22 05:22:39;;;;;;;13.38;7.43;;;43.00;28.60;;;;;;4973519;28;20361;-71
2021/05/22 05:25:08;;;;;;;12.18;6.05;;;43.20;28.50;;;;;;4973203;28;20027;-73
2021/05/22 05:27:34;;;;;;;10.57;4.70;;;43.50;28.50;;;;;;4973186;28;20101;-72
2021/05/22 05:30:00;;;;;;;8.43;5.70;;;43.80;28.30;;;;;;4973450;28;20485;-72
2021/05/22 05:32:25;;;;;;;8.68;4.00;;;43.80;27.90;;;;;;4973235;28;20385;-73
2021/05/22 05:34:51;;;;;;;9.70;4.55;;;44.00;27.80;;;;;;4973137;28;20093;-72
2021/05/22 05:37:17;;;;;;;16.73;5.35;;;44.20;27.60;;;;;;4973119;28;20114;-72
2021/05/22 05:39:43;;;;;;;6.57;4.78;;;44.20;27.50;;;;;;4973068;28;20034;-73
2021/05/22 05:42:09;;;;;;;10.90;4.25;;;44.20;27.40;;;;;;4973244;28;20062;-72
2021/05/22 05:44:35;;;;;;;7.85;4.28;;;44.40;27.40;;;;;;4972358;28;20418;-72
2021/05/22 05:47:01;;;;;;;11.77;4.72;;;44.40;27.40;;;;;;4972880;28;20035;-72
2021/05/22 05:49:28;;;;;;;12.57;5.25;;;44.60;27.50;;;;;;4972983;28;20089;-73
2021/05/22 05:51:58;;;;;;;13.63;9.27;;;44.60;27.20;;;;;;4972628;28;20437;-71
2021/05/22 05:54:25;;;;;;;12.93;5.57;;;44.70;27.10;;;;;;4971481;28;20029;-73
2021/05/22 05:56:51;;;;;;;15.48;7.88;;;44.70;27.20;;;;;;4971387;28;20572;-73
2021/05/22 05:59:17;;;;;;;10.48;6.30;;;44.70;27.20;;;;;;4971395;28;20046;-72
2021/05/22 06:01:43;;;;;;;11.57;5.22;;;44.70;26.90;;;;;;4971137;28;20050;-72
2021/05/22 06:04:09;;;;;;;17.10;6.72;;;44.60;26.80;;;;;;4971478;28;20054;-72
2021/05/22 06:06:36;;;;;;;17.42;9.02;;;44.50;26.60;;;;;;4971727;28;20129;-73
2021/05/22 06:09:03;;;;;;;14.55;5.45;;;44.50;26.70;;;;;;4970983;28;20023;-73
2021/05/22 06:11:33;;;;;;;12.60;6.60;;;44.60;26.80;;;;;;4971433;28;20019;-72
2021/05/22 06:13:59;;;;;;;15.18;7.57;;;44.40;26.60;;;;;;4971600;28;20488;-73
2021/05/22 06:18:53;;;;;;;17.33;6.22;;;44.20;27.10;;;;;;4971349;28;20301;-73
2021/05/22 06:21:19;;;;;;;11.75;6.10;;;44.10;27.00;;;;;;4971270;28;20468;-73
2021/05/22 06:23:45;;;;;;;9.25;5.75;;;44.00;27.20;;;;;;5002127;28;20035;-77
2021/05/22 06:26:10;;;;;;;9.05;5.38;;;43.90;27.30;;;;;;4971137;28;20292;-76
2021/05/22 06:28:36;;;;;;;8.38;5.47;;;43.80;27.20;;;;;;4970419;28;20039;-75
2021/05/22 06:31:04;;;;;;;11.63;5.22;;;43.70;27.30;;;;;;4971320;28;20034;-74
2021/05/22 06:33:30;;;;;;;11.02;6.63;;;43.40;26.90;;;;;;4971519;28;20026;-76
2021/05/22 06:35:56;;;;;;;17.02;8.52;;;43.20;26.90;;;;;;4971816;28;20355;-75
2021/05/22 06:38:22;;;;;;;23.17;10.68;;;43.10;26.80;;;;;;4969344;28;20054;-77
2021/05/22 06:40:49;;;;;;;25.65;9.55;;;43.00;27.00;;;;;;4971021;28;20026;-75
2021/05/22 06:43:15;;;;;;;22.13;8.73;;;42.90;27.00;;;;;;4972666;28;20025;-76
2021/05/22 06:45:46;;;;;;;22.17;10.07;;;42.80;27.00;;;;;;5003409;28;20030;-75
2021/05/22 06:48:14;;;;;;;21.67;9.95;;;42.80;26.90;;;;;;4972741;28;20423;-76
2021/05/22 06:50:41;;;;;;;19.45;7.65;;;42.80;26.70;;;;;;4973233;28;20023;-77
2021/05/22 06:53:07;;;;;;;27.92;12.70;;;42.70;26.60;;;;;;5003381;28;20450;-77
2021/05/22 06:55:33;;;;;;;34.22;16.38;;;42.60;26.70;;;;;;5004021;28;20113;-77
2021/05/22 06:58:00;;;;;;;26.90;12.98;;;42.50;26.40;;;;;;4973167;28;20030;-76
2021/05/22 07:00:27;;;;;;;26.50;12.85;;;42.40;26.70;;;;;;4972780;28;20052;-77
2021/05/22 07:02:52;;;;;;;22.65;11.43;;;42.20;26.70;;;;;;5004218;28;20482;-77
2021/05/22 07:05:18;;;;;;;20.48;9.70;;;41.90;26.40;;;;;;4972448;28;20081;-76
2021/05/22 07:07:45;;;;;;;15.43;8.45;;;41.80;26.10;;;;;;4972813;28;20097;-76
2021/05/22 07:10:12;;;;;;;20.40;8.05;;;41.50;25.80;;;;;;4972483;28;20015;-76
2021/05/22 07:12:38;;;;;;;36.13;14.77;;;41.20;25.80;;;;;;4973215;28;20035;-76
2021/05/22 07:15:05;;;;;;;30.90;15.95;;;41.00;25.90;;;;;;5004238;28;20023;-75
2021/05/22 07:17:32;;;;;;;32.13;15.43;;;40.60;26.20;;;;;;4973324;28;20433;-79
2021/05/22 07:19:57;;;;;;;32.75;14.57;;;40.30;26.30;;;;;;4972883;28;20023;-77
2021/05/22 07:22:23;;;;;;;21.73;10.50;;;40.10;26.40;;;;;;4972700;28;20089;-76
2021/05/22 07:24:49;;;;;;;28.98;11.52;;;39.90;26.10;;;;;;4972763;28;20027;-77
2021/05/22 07:27:16;;;;;;;22.67;10.48;;;39.70;26.00;;;;;;4971884;28;20374;-78
2021/05/22 07:29:45;;;;;;;16.92;6.95;;;39.60;26.20;;;;;;4972625;28;20039;-77
2021/05/22 07:32:11;;;;;;;13.52;7.05;;;39.50;26.40;;;;;;4972629;28;20106;-77
2021/05/22 07:34:36;;;;;;;17.80;7.13;;;39.30;26.30;;;;;;4972542;28;20106;-79
2021/05/22 07:37:02;;;;;;;15.00;6.10;;;39.10;26.30;;;;;;4972194;28;20070;-77
2021/05/22 07:39:28;;;;;;;9.13;4.22;;;39.00;26.40;;;;;;4972250;28;20019;-78
2021/05/22 07:41:54;;;;;;;11.35;4.57;;;38.90;26.70;;;;;;4975954;28;20125;-77
2021/05/22 07:44:19;;;;;;;22.50;6.65;;;38.70;26.60;;;;;;4975791;28;20034;-79
2021/05/22 07:46:45;;;;;;;15.82;7.00;;;38.50;26.60;;;;;;5007264;28;20026;-80
2021/05/22 07:49:11;;;;;;;22.45;7.20;;;38.20;26.40;;;;;;4992073;28;20057;-83
2021/05/22 07:51:37;;;;;;;19.20;7.43;;;37.90;26.60;;;;;;4980045;28;20025;-87
2021/05/22 07:54:03;;;;;;;27.05;9.20;;;37.70;26.70;;;;;;4976237;28;20027;-84
2021/05/22 07:56:29;;;;;;;20.92;8.95;;;37.30;26.50;;;;;;4976286;28;20134;-83
2021/05/22 07:58:55;;;;;;;14.90;4.47;;;36.90;26.70;;;;;;4974671;28;20510;-83
2021/05/22 08:01:20;;;;;;;11.90;4.13;;;36.50;26.60;;;;;;4974795;28;20027;-84
2021/05/22 08:03:46;;;;;;;9.10;4.38;;;35.90;26.70;;;;;;4975395;28;20247;-83
2021/05/22 08:06:12;;;;;;;11.38;4.90;;;35.40;26.90;;;;;;4975706;28;20029;-83
2021/05/22 08:08:37;;;;;;;14.82;4.70;;;34.80;27.00;;;;;;4974733;28;20034;-81
2021/05/22 08:11:03;;;;;;;13.43;4.15;;;34.40;27.30;;;;;;4974987;28;20031;-83
2021/05/22 08:13:32;;;;;;;20.27;6.68;;;34.10;27.50;;;;;;4974633;28;20169;-84
2021/05/22 08:15:58;;;;;;;17.42;5.70;;;33.90;27.80;;;;;;4974740;28;20031;-84
2021/05/22 08:18:24;;;;;;;14.00;5.50;;;33.60;28.20;;;;;;4975186;28;20026;-83
2021/05/22 08:20:50;;;;;;;16.70;6.30;;;33.50;28.40;;;;;;4974889;28;20077;-83
2021/05/22 08:23:17;;;;;;;18.77;6.90;;;33.30;28.30;;;;;;4975806;28;20035;-82
2021/05/22 08:25:42;;;;;;;15.23;6.28;;;33.20;28.50;;;;;;4978840;28;20105;-83
2021/05/22 08:28:08;;;;;;;17.25;6.00;;;33.10;28.60;;;;;;4976397;28;20438;-82
2021/05/22 08:30:34;;;;;;;15.60;7.13;;;32.90;28.50;;;;;;4975360;28;20034;-79
2021/05/22 08:33:01;;;;;;;16.25;6.78;;;32.70;28.70;;;;;;4973895;28;20030;-79
2021/05/22 08:35:29;;;;;;;7.70;4.88;;;32.50;28.70;;;;;;4973990;28;20382;-79
2021/05/22 08:37:55;;;;;;;5.97;1.73;;;32.30;28.50;;;;;;4973866;28;20031;-80
2021/05/22 08:40:25;;;;;;;5.10;2.30;;;31.90;27.90;;;;;;4974458;28;20030;-79
2021/05/22 08:42:51;;;;;;;2.60;1.92;;;31.30;28.10;;;;;;4974059;28;20462;-78
2021/05/22 08:45:20;;;;;;;3.28;2.15;;;31.10;28.40;;;;;;4974123;28;20042;-80
2021/05/22 08:47:48;;;;;;;2.42;1.50;;;31.00;29.00;;;;;;4974206;28;20018;-79
2021/05/22 08:50:14;;;;;;;3.30;1.85;;;30.90;28.30;;;;;;4974984;28;20039;-79
2021/05/22 08:52:40;;;;;;;3.58;1.63;;;30.50;28.20;;;;;;4974605;28;20019;-78
2021/05/22 08:55:06;;;;;;;3.08;2.33;;;30.10;28.50;;;;;;4974222;28;20042;-79
2021/05/22 08:57:32;;;;;;;5.07;1.77;;;29.90;28.60;;;;;;4974248;28;20025;-79
2021/05/22 08:59:58;;;;;;;3.70;2.20;;;29.80;28.70;;;;;;4974968;28;20027;-80
2021/05/22 09:02:26;;;;;;;5.50;2.60;;;29.70;28.80;;;;;;4974385;28;20023;-81
2021/05/22 09:05:09;;;;;;;5.57;3.30;;;29.40;29.10;;;;;;4973620;28;20039;-80
2021/05/22 09:07:39;;;;;;;6.15;2.55;;;29.30;29.80;;;;;;4973280;28;20077;-80
2021/05/22 09:10:10;;;;;;;2.70;2.50;;;29.20;29.20;;;;;;4974054;28;20038;-80
2021/05/22 09:12:38;;;;;;;6.97;2.90;;;29.00;29.80;;;;;;4973926;28;20596;-80
2021/05/22 09:15:08;;;;;;;8.50;3.05;;;29.00;29.50;;;;;;4973368;28;20266;-74
2021/05/22 09:17:34;;;;;;;7.55;3.47;;;29.00;29.70;;;;;;4973530;28;20031;-74
2021/05/22 09:20:14;;;;;;;4.88;2.92;;;29.10;29.70;;;;;;4973245;28;20037;-75
2021/05/22 09:22:40;;;;;;;9.63;3.60;;;29.20;29.80;;;;;;4973389;28;20023;-74
2021/05/22 09:25:07;;;;;;;10.38;3.72;;;29.20;30.00;;;;;;4973328;28;20096;-75
2021/05/22 09:27:39;;;;;;;5.55;2.92;;;29.30;30.50;;;;;;4972894;28;20026;-75
2021/05/22 09:30:24;;;;;;;6.57;2.38;;;29.30;29.80;;;;;;4972980;28;20058;-74
2021/05/22 09:32:50;;;;;;;7.13;2.30;;;29.10;29.70;;;;;;4973594;28;20163;-74
2021/05/22 09:35:17;;;;;;;4.22;2.30;;;29.00;29.60;;;;;;4973296;28;20023;-74
2021/05/22 09:37:47;;;;;;;6.18;2.28;;;28.70;29.60;;;;;;4973207;28;20110;-74
2021/05/22 09:40:16;;;;;;;2.30;2.17;;;28.50;29.70;;;;;;4972976;28;20031;-73
2021/05/22 09:42:42;;;;;;;18.30;3.60;;;28.30;29.70;;;;;;4972795;28;20041;-75
2021/05/22 09:45:38;;;;;;;4.47;2.78;;;28.00;30.00;;;;;;4972857;28;20517;-73
2021/05/22 09:48:18;;;;;;;5.50;2.92;;;27.90;29.90;;;;;;4968042;28;20474;-75
2021/05/22 09:50:51;;;;;;;7.00;2.92;;;27.80;29.90;;;;;;4972686;28;20378;-77
2021/05/22 09:53:28;;;;;;;8.82;3.78;;;27.50;30.10;;;;;;4973208;28;20019;-79
2021/05/22 09:56:18;;;;;;;15.45;4.35;;;27.30;30.50;;;;;;4974357;28;20154;-78
2021/05/22 09:58:56;;;;;;;14.25;6.43;;;27.10;31.40;;;;;;4965821;28;20043;-74
2021/05/22 10:01:29;;;;;;;8.27;3.50;;;27.10;31.70;;;;;;4973041;28;20485;-74
2021/05/22 10:04:14;;;;;;;8.07;3.35;;;27.30;31.30;;;;;;4972156;28;20046;-74
2021/05/22 10:06:40;;;;;;;4.13;2.90;;;27.20;31.20;;;;;;4969848;28;20023;-73
2021/05/22 10:09:10;;;;;;;3.85;3.00;;;27.30;31.20;;;;;;4972112;28;20034;-73
2021/05/22 10:12:06;;;;;;;8.27;3.85;;;27.00;31.10;;;;;;4972426;28;20062;-73
2021/05/22 10:14:43;;;;;;;6.07;3.17;;;26.60;31.60;;;;;;4971760;28;20038;-73
2021/05/22 10:17:11;;;;;;;9.88;3.60;;;26.30;32.10;;;;;;4971884;28;20113;-73
2021/05/22 10:19:40;;;;;;;5.72;3.50;;;26.00;32.60;;;;;;4972174;28;20486;-73
2021/05/22 10:22:08;;;;;;;8.00;3.75;;;26.00;32.80;;;;;;4972598;28;20102;-73
2021/05/22 10:24:34;;;;;;;9.18;3.88;;;25.90;32.20;;;;;;4972178;28;20023;-72
2021/05/22 10:27:00;;;;;;;7.55;3.80;;;25.70;32.10;;;;;;4971972;28;20073;-73
2021/05/22 10:29:29;;;;;;;9.45;3.47;;;25.40;32.00;;;;;;4972142;28;20101;-74
2021/05/22 10:31:55;;;;;;;7.43;4.15;;;25.10;32.80;;;;;;4972661;28;20188;-73
2021/05/22 10:34:24;;;;;;;6.60;3.65;;;24.90;32.70;;;;;;4972480;28;20027;-73
2021/05/22 10:36:58;;;;;;;9.82;4.25;;;24.70;32.50;;;;;;4971898;28;20026;-75
2021/05/22 10:39:41;;;;;;;9.27;4.20;;;24.40;33.20;;;;;;4971205;28;20510;-73
2021/05/22 10:42:28;;;;;;;14.23;4.43;;;24.10;33.60;;;;;;4972178;28;20117;-73
2021/05/22 10:44:55;;;;;;;11.82;4.03;;;24.10;34.20;;;;;;4972259;28;20038;-74
2021/05/22 10:47:25;;;;;;;5.22;3.55;;;24.10;33.70;;;;;;4972095;28;20058;-72
2021/05/22 10:50:03;;;;;;;4.55;3.65;;;24.00;33.50;;;;;;4972268;28;20023;-74
2021/05/22 10:52:29;;;;;;;7.82;4.10;;;23.80;33.80;;;;;;4972336;28;20069;-74
2021/05/22 10:55:11;;;;;;;10.95;6.18;;;23.70;34.00;;;;;;4971975;28;20026;-73
2021/05/22 10:57:46;;;;;;;10.07;5.07;;;23.60;34.20;;;;;;4972221;28;20050;-74
2021/05/22 11:00:15;;;;;;;9.45;4.47;;;23.60;34.00;;;;;;4972133;28;20438;-74
2021/05/22 11:02:53;;;;;;;9.98;4.68;;;23.60;34.40;;;;;;4970807;28;20141;-75
2021/05/22 11:05:22;;;;;;;9.15;5.05;;;23.60;34.20;;;;;;4972190;28;20031;-73
2021/05/22 11:07:49;;;;;;;8.82;4.20;;;23.60;33.90;;;;;;4972423;28;20022;-72
2021/05/22 11:10:40;;;;;;;16.15;5.75;;;23.50;34.20;;;;;;4971542;28;20039;-73
2021/05/22 11:13:21;;;;;;;9.80;4.38;;;23.60;34.60;;;;;;4984375;28;20031;-74
2021/05/22 11:15:52;;;;;;;8.57;4.70;;;23.60;34.40;;;;;;4974378;28;20042;-72
2021/05/22 11:18:51;;;;;;;7.07;4.53;;;23.50;34.00;;;;;;4975103;28;20093;-72
2021/05/22 11:21:22;;;;;;;6.40;4.80;;;23.30;34.20;;;;;;4975916;28;20114;-74
2021/05/22 11:24:01;;;;;;;8.35;4.95;;;23.30;34.30;;;;;;4975422;28;20043;-73
2021/05/22 11:26:57;;;;;;;8.40;5.25;;;23.30;34.40;;;;;;4975360;28;20105;-73
2021/05/22 11:29:44;;;;;;;8.25;4.32;;;23.30;34.10;;;;;;4974781;28;20401;-73
2021/05/22 11:33:08;;;;;;;9.73;3.80;;;23.30;34.00;;;;;;4964952;28;20043;-73
2021/05/22 11:35:38;;;;;;;8.50;4.35;;;23.30;34.50;;;;;;4914754;29;20119;-75
2021/05/22 11:38:18;;;;;;;7.45;4.85;;;23.20;34.20;;;;;;4915783;29;20032;-74
2021/05/22 11:40:44;;;;;;;5.65;4.30;;;23.10;34.80;;;;;;4959256;28;20035;-73
2021/05/22 11:43:13;;;;;;;10.13;4.40;;;23.10;34.80;;;;;;4975216;28;20086;-72
2021/05/22 11:45:42;;;;;;;14.88;4.40;;;23.10;35.50;;;;;;4975184;28;20031;-72
2021/05/22 11:48:24;;;;;;;8.98;5.03;;;23.10;35.60;;;;;;4975257;28;20470;-74
2021/05/22 11:50:51;;;;;;;8.52;4.82;;;23.10;35.30;;;;;;4975194;28;20025;-73
2021/05/22 11:53:18;;;;;;;10.25;4.70;;;23.10;35.10;;;;;;4975369;28;20023;-73
2021/05/22 11:55:44;;;;;;;6.85;3.92;;;23.00;35.20;;;;;;4975380;28;20478;-73
2021/05/22 11:58:14;;;;;;;6.32;4.13;;;23.00;35.60;;;;;;4975140;28;20389;-73
2021/05/22 12:00:40;;;;;;;8.35;4.30;;;23.10;36.10;;;;;;4975180;28;20362;-74
2021/05/22 12:03:06;;;;;;;12.88;5.15;;;23.10;35.70;;;;;;4974710;28;20327;-74
2021/05/22 12:05:39;;;;;;;4.05;3.53;;;23.00;35.60;;;;;;4974611;28;20054;-73
2021/05/22 12:08:14;;;;;;;4.97;3.60;;;22.80;35.30;;;;;;4975048;28;20027;-74
2021/05/22 12:10:40;;;;;;;9.93;4.25;;;22.70;35.60;;;;;;4974998;28;20022;-74
2021/05/22 12:13:06;;;;;;;5.47;3.28;;;22.50;35.70;;;;;;4974989;28;20026;-73
2021/05/22 12:15:33;;;;;;;6.88;3.70;;;22.50;35.70;;;;;;4975067;28;20030;-74
2021/05/22 12:18:09;;;;;;;7.07;3.38;;;22.50;35.90;;;;;;4974915;28;20058;-74
2021/05/22 12:20:49;;;;;;;5.75;3.53;;;22.50;36.20;;;;;;4974710;28;20023;-74
2021/05/22 12:23:34;;;;;;;4.55;4.13;;;22.70;35.80;;;;;;4974600;28;20027;-72
2021/05/22 12:26:01;;;;;;;6.50;3.33;;;22.90;35.30;;;;;;4973509;28;20037;-73
2021/05/22 12:28:27;;;;;;;8.20;2.60;;;23.10;35.20;;;;;;4973742;28;20042;-73
2021/05/22 12:30:55;;;;;;;3.92;2.50;;;23.20;35.30;;;;;;4973742;28;20034;-74
2021/05/22 12:33:21;;;;;;;3.28;2.97;;;23.30;35.30;;;;;;4972379;28;20023;-73
2021/05/22 12:36:00;;;;;;;5.85;2.97;;;23.20;35.40;;;;;;4974116;28;20481;-74
2021/05/22 12:38:37;;;;;;;8.52;2.78;;;23.10;35.40;;;;;;4974164;28;20031;-73
2021/05/22 12:41:03;;;;;;;3.42;2.50;;;23.00;35.60;;;;;;4974173;28;20412;-73
2021/05/22 12:43:41;;;;;;;6.47;2.60;;;22.90;36.30;;;;;;4973752;28;20117;-73
2021/05/22 12:46:29;;;;;;;3.13;2.70;;;22.80;35.30;;;;;;4973302;28;20050;-73
2021/05/22 12:49:11;;;;;;;4.57;2.55;;;22.80;35.20;;;;;;4973729;28;20027;-74